sensor_id;sensor_type;location;lat;lon;timestamp;P1;durP1;ratioP1;P2;durP2;ratioP2
434;SDS011;204;48.942;9.256;2022-07-24T00:00:09;16.57;;;15.77;;
434;SDS011;204;48.942;9.256;2022-07-24T00:02:34;16.00;;;15.20;;
434;SDS011;204;48.942;9.256;2022-07-24T00:05:00;15.17;;;14.37;;
434;SDS011;204;48.942;9.256;2022-07-24T00:07:26;16.00;;;15.23;;
434;SDS011;204;48.942;9.256;2022-07-24T00:09:52;15.53;;;14.73;;
434;SDS011;204;48.942;9.256;2022-07-24T00:12:18;15.77;;;14.97;;
434;SDS011;204;48.942;9.256;2022-07-24T00:14:44;16.27;;;15.47;;
434;SDS011;204;48.942;9.256;2022-07-24T00:17:10;15.47;;;14.67;;
434;SDS011;204;48.942;9.256;2022-07-24T00:19:35;15.67;;;14.87;;
434;SDS011;204;48.942;9.256;2022-07-24T00:22:01;15.47;;;14.67;;
434;SDS011;204;48.942;9.256;2022-07-24T00:24:27;15.17;;;14.37;;
434;SDS011;204;48.942;9.256;2022-07-24T00:26:53;15.27;;;14.47;;
434;SDS011;204;48.942;9.256;2022-07-24T00:29:19;16.53;;;15.73;;
434;SDS011;204;48.942;9.256;2022-07-24T00:31:45;14.90;;;14.10;;
434;SDS011;204;48.942;9.256;2022-07-24T00:34:10;17.13;;;16.27;;
434;SDS011;204;48.942;9.256;2022-07-24T00:36:36;16.50;;;15.70;;
434;SDS011;204;48.942;9.256;2022-07-24T00:39:02;17.00;;;16.10;;
434;SDS011;204;48.942;9.256;2022-07-24T00:41:28;15.83;;;15.03;;
434;SDS011;204;48.942;9.256;2022-07-24T00:44:01;15.97;;;15.17;;
434;SDS011;204;48.942;9.256;2022-07-24T00:46:27;15.80;;;15.00;;
434;SDS011;204;48.942;9.256;2022-07-24T00:48:53;16.13;;;15.33;;
434;SDS011;204;48.942;9.256;2022-07-24T00:51:19;17.33;;;16.43;;
434;SDS011;204;48.942;9.256;2022-07-24T00:53:45;17.73;;;16.80;;
434;SDS011;204;48.942;9.256;2022-07-24T00:56:11;16.63;;;15.83;;
434;SDS011;204;48.942;9.256;2022-07-24T00:58:38;16.40;;;15.60;;
434;SDS011;204;48.942;9.256;2022-07-24T01:01:03;17.17;;;16.27;;
434;SDS011;204;48.942;9.256;2022-07-24T01:03:29;17.53;;;16.63;;
434;SDS011;204;48.942;9.256;2022-07-24T01:05:54;17.33;;;16.43;;
434;SDS011;204;48.942;9.256;2022-07-24T01:08:20;16.47;;;15.67;;
434;SDS011;204;48.942;9.256;2022-07-24T01:10:47;17.63;;;16.73;;
434;SDS011;204;48.942;9.256;2022-07-24T01:13:13;18.73;;;17.83;;
434;SDS011;204;48.942;9.256;2022-07-24T01:15:39;17.57;;;16.67;;
434;SDS011;204;48.942;9.256;2022-07-24T01:18:05;18.23;;;17.33;;
434;SDS011;204;48.942;9.256;2022-07-24T01:20:35;18.00;;;17.10;;
434;SDS011;204;48.942;9.256;2022-07-24T01:23:02;17.57;;;16.67;;
434;SDS011;204;48.942;9.256;2022-07-24T01:25:27;18.83;;;17.90;;
434;SDS011;204;48.942;9.256;2022-07-24T01:27:53;16.43;;;15.63;;
434;SDS011;204;48.942;9.256;2022-07-24T01:30:19;17.93;;;16.97;;
434;SDS011;204;48.942;9.256;2022-07-24T01:32:45;18.40;;;17.50;;
434;SDS011;204;48.942;9.256;2022-07-24T01:35:10;19.10;;;18.10;;
434;SDS011;204;48.942;9.256;2022-07-24T01:37:36;16.90;;;16.03;;
434;SDS011;204;48.942;9.256;2022-07-24T01:40:02;16.50;;;15.70;;
434;SDS011;204;48.942;9.256;2022-07-24T01:42:28;17.83;;;16.93;;
434;SDS011;204;48.942;9.256;2022-07-24T01:44:54;19.30;;;18.30;;
434;SDS011;204;48.942;9.256;2022-07-24T01:47:19;17.80;;;16.90;;
434;SDS011;204;48.942;9.256;2022-07-24T01:49:45;17.97;;;17.07;;
434;SDS011;204;48.942;9.256;2022-07-24T01:52:10;18.97;;;18.00;;
434;SDS011;204;48.942;9.256;2022-07-24T01:54:36;18.07;;;17.13;;
434;SDS011;204;48.942;9.256;2022-07-24T01:57:01;17.90;;;17.00;;
434;SDS011;204;48.942;9.256;2022-07-24T01:59:27;16.90;;;16.03;;
434;SDS011;204;48.942;9.256;2022-07-24T02:01:53;18.20;;;17.30;;
434;SDS011;204;48.942;9.256;2022-07-24T02:04:18;17.87;;;16.97;;
434;SDS011;204;48.942;9.256;2022-07-24T02:06:44;17.13;;;16.23;;
434;SDS011;204;48.942;9.256;2022-07-24T02:09:10;17.37;;;16.47;;
434;SDS011;204;48.942;9.256;2022-07-24T02:11:35;18.47;;;17.57;;
434;SDS011;204;48.942;9.256;2022-07-24T02:14:01;17.73;;;16.83;;
434;SDS011;204;48.942;9.256;2022-07-24T02:16:27;16.77;;;15.93;;
434;SDS011;204;48.942;9.256;2022-07-24T02:18:52;18.40;;;17.50;;
434;SDS011;204;48.942;9.256;2022-07-24T02:21:18;17.83;;;16.93;;
434;SDS011;204;48.942;9.256;2022-07-24T02:23:43;19.20;;;18.20;;
434;SDS011;204;48.942;9.256;2022-07-24T02:26:09;17.00;;;16.10;;
434;SDS011;204;48.942;9.256;2022-07-24T02:28:35;17.37;;;16.47;;
434;SDS011;204;48.942;9.256;2022-07-24T02:31:00;18.60;;;17.70;;
434;SDS011;204;48.942;9.256;2022-07-24T02:33:26;18.70;;;17.80;;
434;SDS011;204;48.942;9.256;2022-07-24T02:35:52;18.20;;;17.30;;
434;SDS011;204;48.942;9.256;2022-07-24T02:38:17;17.40;;;16.50;;
434;SDS011;204;48.942;9.256;2022-07-24T02:40:43;18.57;;;17.67;;
434;SDS011;204;48.942;9.256;2022-07-24T02:43:08;17.00;;;16.10;;
434;SDS011;204;48.942;9.256;2022-07-24T02:45:34;17.40;;;16.50;;
434;SDS011;204;48.942;9.256;2022-07-24T02:48:00;17.47;;;16.57;;
434;SDS011;204;48.942;9.256;2022-07-24T02:50:28;17.03;;;16.13;;
434;SDS011;204;48.942;9.256;2022-07-24T02:52:56;17.20;;;16.30;;
434;SDS011;204;48.942;9.256;2022-07-24T02:55:22;17.83;;;16.93;;
434;SDS011;204;48.942;9.256;2022-07-24T02:57:47;18.20;;;17.30;;
434;SDS011;204;48.942;9.256;2022-07-24T03:00:14;18.70;;;17.80;;
434;SDS011;204;48.942;9.256;2022-07-24T03:02:42;17.00;;;16.10;;
434;SDS011;204;48.942;9.256;2022-07-24T03:05:08;18.20;;;17.30;;
434;SDS011;204;48.942;9.256;2022-07-24T03:07:34;18.83;;;17.90;;
434;SDS011;204;48.942;9.256;2022-07-24T03:10:04;17.90;;;17.00;;
434;SDS011;204;48.942;9.256;2022-07-24T03:12:35;18.60;;;17.70;;
434;SDS011;204;48.942;9.256;2022-07-24T03:15:00;19.37;;;18.37;;
434;SDS011;204;48.942;9.256;2022-07-24T03:17:26;17.80;;;16.90;;
434;SDS011;204;48.942;9.256;2022-07-24T03:19:52;17.87;;;16.97;;
434;SDS011;204;48.942;9.256;2022-07-24T03:22:17;17.20;;;16.30;;
434;SDS011;204;48.942;9.256;2022-07-24T03:24:43;17.03;;;16.13;;
434;SDS011;204;48.942;9.256;2022-07-24T03:27:09;17.23;;;16.33;;
434;SDS011;204;48.942;9.256;2022-07-24T03:29:34;17.50;;;16.60;;
434;SDS011;204;48.942;9.256;2022-07-24T03:32:01;18.80;;;17.90;;
434;SDS011;204;48.942;9.256;2022-07-24T03:34:26;18.37;;;17.47;;
434;SDS011;204;48.942;9.256;2022-07-24T03:36:52;18.30;;;17.40;;
434;SDS011;204;48.942;9.256;2022-07-24T03:39:18;20.67;;;19.67;;
434;SDS011;204;48.942;9.256;2022-07-24T03:41:43;18.57;;;17.67;;
434;SDS011;204;48.942;9.256;2022-07-24T03:44:09;19.77;;;18.77;;
434;SDS011;204;48.942;9.256;2022-07-24T03:46:35;18.00;;;17.10;;
434;SDS011;204;48.942;9.256;2022-07-24T03:49:00;18.93;;;17.97;;
434;SDS011;204;48.942;9.256;2022-07-24T03:51:28;16.97;;;16.10;;
434;SDS011;204;48.942;9.256;2022-07-24T03:53:54;20.20;;;19.20;;
434;SDS011;204;48.942;9.256;2022-07-24T03:56:19;18.40;;;17.50;;
434;SDS011;204;48.942;9.256;2022-07-24T03:58:45;18.13;;;17.23;;
434;SDS011;204;48.942;9.256;2022-07-24T04:01:10;18.50;;;17.60;;
434;SDS011;204;48.942;9.256;2022-07-24T04:03:36;18.73;;;17.83;;
434;SDS011;204;48.942;9.256;2022-07-24T04:06:02;17.80;;;16.90;;
434;SDS011;204;48.942;9.256;2022-07-24T04:08:29;18.90;;;17.97;;
434;SDS011;204;48.942;9.256;2022-07-24T04:10:55;19.57;;;18.57;;
434;SDS011;204;48.942;9.256;2022-07-24T04:13:25;19.40;;;18.40;;
434;SDS011;204;48.942;9.256;2022-07-24T04:15:52;18.43;;;17.53;;
434;SDS011;204;48.942;9.256;2022-07-24T04:18:18;19.80;;;18.57;;
434;SDS011;204;48.942;9.256;2022-07-24T04:20:44;18.40;;;17.50;;
434;SDS011;204;48.942;9.256;2022-07-24T04:23:10;19.27;;;18.27;;
434;SDS011;204;48.942;9.256;2022-07-24T04:25:35;18.00;;;17.10;;
434;SDS011;204;48.942;9.256;2022-07-24T04:28:01;18.33;;;17.43;;
434;SDS011;204;48.942;9.256;2022-07-24T04:30:27;18.67;;;17.77;;
434;SDS011;204;48.942;9.256;2022-07-24T04:32:53;19.23;;;18.23;;
434;SDS011;204;48.942;9.256;2022-07-24T04:35:19;19.10;;;18.10;;
434;SDS011;204;48.942;9.256;2022-07-24T04:37:44;17.20;;;16.30;;
434;SDS011;204;48.942;9.256;2022-07-24T04:40:11;17.07;;;16.17;;
434;SDS011;204;48.942;9.256;2022-07-24T04:42:37;17.30;;;16.40;;
434;SDS011;204;48.942;9.256;2022-07-24T04:45:04;16.63;;;15.83;;
434;SDS011;204;48.942;9.256;2022-07-24T04:47:30;17.57;;;16.67;;
434;SDS011;204;48.942;9.256;2022-07-24T04:49:55;16.40;;;15.60;;
434;SDS011;204;48.942;9.256;2022-07-24T04:52:21;15.27;;;14.47;;
434;SDS011;204;48.942;9.256;2022-07-24T04:54:46;16.70;;;15.90;;
434;SDS011;204;48.942;9.256;2022-07-24T04:57:12;16.07;;;15.27;;
434;SDS011;204;48.942;9.256;2022-07-24T04:59:38;15.83;;;15.03;;
434;SDS011;204;48.942;9.256;2022-07-24T05:02:03;14.60;;;13.87;;
434;SDS011;204;48.942;9.256;2022-07-24T05:04:29;15.63;;;14.83;;
434;SDS011;204;48.942;9.256;2022-07-24T05:06:54;14.40;;;13.70;;
434;SDS011;204;48.942;9.256;2022-07-24T05:09:20;14.40;;;13.70;;
434;SDS011;204;48.942;9.256;2022-07-24T05:11:46;13.83;;;13.13;;
434;SDS011;204;48.942;9.256;2022-07-24T05:14:11;15.13;;;14.33;;
434;SDS011;204;48.942;9.256;2022-07-24T05:16:37;15.33;;;14.53;;
434;SDS011;204;48.942;9.256;2022-07-24T05:19:02;14.40;;;13.70;;
434;SDS011;204;48.942;9.256;2022-07-24T05:21:28;14.83;;;14.07;;
434;SDS011;204;48.942;9.256;2022-07-24T05:23:54;13.60;;;12.90;;
434;SDS011;204;48.942;9.256;2022-07-24T05:26:20;14.23;;;13.53;;
434;SDS011;204;48.942;9.256;2022-07-24T05:28:45;14.50;;;13.80;;
434;SDS011;204;48.942;9.256;2022-07-24T05:31:11;13.87;;;13.17;;
434;SDS011;204;48.942;9.256;2022-07-24T05:33:37;14.10;;;13.40;;
434;SDS011;204;48.942;9.256;2022-07-24T05:36:03;13.90;;;13.20;;
434;SDS011;204;48.942;9.256;2022-07-24T05:38:29;13.20;;;12.50;;
434;SDS011;204;48.942;9.256;2022-07-24T05:40:54;14.90;;;14.10;;
434;SDS011;204;48.942;9.256;2022-07-24T05:43:21;13.90;;;13.20;;
434;SDS011;204;48.942;9.256;2022-07-24T05:45:46;14.33;;;13.63;;
434;SDS011;204;48.942;9.256;2022-07-24T05:48:12;14.50;;;13.80;;
434;SDS011;204;48.942;9.256;2022-07-24T05:50:38;13.77;;;13.07;;
434;SDS011;204;48.942;9.256;2022-07-24T05:53:03;13.97;;;13.27;;
434;SDS011;204;48.942;9.256;2022-07-24T05:55:29;14.10;;;13.40;;
434;SDS011;204;48.942;9.256;2022-07-24T05:57:55;14.20;;;13.50;;
434;SDS011;204;48.942;9.256;2022-07-24T06:00:21;14.87;;;14.07;;
434;SDS011;204;48.942;9.256;2022-07-24T06:02:46;13.60;;;12.90;;
434;SDS011;204;48.942;9.256;2022-07-24T06:05:13;13.73;;;13.03;;
434;SDS011;204;48.942;9.256;2022-07-24T06:07:39;13.93;;;13.23;;
434;SDS011;204;48.942;9.256;2022-07-24T06:10:06;13.67;;;12.97;;
434;SDS011;204;48.942;9.256;2022-07-24T06:12:32;13.00;;;12.30;;
434;SDS011;204;48.942;9.256;2022-07-24T06:14:58;13.00;;;12.30;;
434;SDS011;204;48.942;9.256;2022-07-24T06:17:24;13.50;;;12.80;;
434;SDS011;204;48.942;9.256;2022-07-24T06:19:49;12.77;;;12.07;;
434;SDS011;204;48.942;9.256;2022-07-24T06:22:15;12.87;;;12.17;;
434;SDS011;204;48.942;9.256;2022-07-24T06:24:40;13.17;;;12.47;;
434;SDS011;204;48.942;9.256;2022-07-24T06:27:06;13.73;;;13.03;;
434;SDS011;204;48.942;9.256;2022-07-24T06:29:31;12.80;;;12.10;;
434;SDS011;204;48.942;9.256;2022-07-24T06:31:57;13.03;;;12.33;;
434;SDS011;204;48.942;9.256;2022-07-24T06:34:23;13.63;;;12.93;;
434;SDS011;204;48.942;9.256;2022-07-24T06:36:49;13.67;;;12.97;;
434;SDS011;204;48.942;9.256;2022-07-24T06:39:16;13.40;;;12.70;;
434;SDS011;204;48.942;9.256;2022-07-24T06:41:42;14.50;;;13.80;;
434;SDS011;204;48.942;9.256;2022-07-24T06:44:07;13.60;;;12.90;;
434;SDS011;204;48.942;9.256;2022-07-24T06:46:33;13.00;;;12.30;;
434;SDS011;204;48.942;9.256;2022-07-24T06:48:59;13.27;;;12.57;;
434;SDS011;204;48.942;9.256;2022-07-24T06:51:27;12.40;;;11.80;;
434;SDS011;204;48.942;9.256;2022-07-24T06:53:53;13.20;;;12.50;;
434;SDS011;204;48.942;9.256;2022-07-24T06:56:18;13.57;;;12.87;;
434;SDS011;204;48.942;9.256;2022-07-24T06:58:44;12.50;;;11.87;;
434;SDS011;204;48.942;9.256;2022-07-24T07:01:10;13.63;;;12.93;;
434;SDS011;204;48.942;9.256;2022-07-24T07:03:36;13.53;;;12.83;;
434;SDS011;204;48.942;9.256;2022-07-24T07:06:02;12.90;;;12.20;;
434;SDS011;204;48.942;9.256;2022-07-24T07:08:28;13.30;;;12.60;;
434;SDS011;204;48.942;9.256;2022-07-24T07:10:53;14.00;;;13.30;;
434;SDS011;204;48.942;9.256;2022-07-24T07:13:19;14.30;;;12.50;;
434;SDS011;204;48.942;9.256;2022-07-24T07:15:44;13.00;;;12.30;;
434;SDS011;204;48.942;9.256;2022-07-24T07:18:10;13.03;;;12.33;;
434;SDS011;204;48.942;9.256;2022-07-24T07:20:35;12.93;;;12.23;;
434;SDS011;204;48.942;9.256;2022-07-24T07:23:01;12.00;;;11.40;;
434;SDS011;204;48.942;9.256;2022-07-24T07:25:27;13.83;;;13.13;;
434;SDS011;204;48.942;9.256;2022-07-24T07:27:52;12.23;;;11.63;;
434;SDS011;204;48.942;9.256;2022-07-24T07:30:18;12.47;;;11.83;;
434;SDS011;204;48.942;9.256;2022-07-24T07:32:44;13.17;;;12.47;;
434;SDS011;204;48.942;9.256;2022-07-24T07:35:09;12.70;;;12.03;;
434;SDS011;204;48.942;9.256;2022-07-24T07:37:35;12.43;;;11.83;;
434;SDS011;204;48.942;9.256;2022-07-24T07:40:00;13.00;;;12.30;;
434;SDS011;204;48.942;9.256;2022-07-24T07:42:26;12.33;;;11.73;;
434;SDS011;204;48.942;9.256;2022-07-24T07:44:52;12.03;;;11.43;;
434;SDS011;204;48.942;9.256;2022-07-24T07:47:17;11.40;;;10.80;;
434;SDS011;204;48.942;9.256;2022-07-24T07:49:43;12.13;;;11.50;;
434;SDS011;204;48.942;9.256;2022-07-24T07:52:09;12.03;;;11.43;;
434;SDS011;204;48.942;9.256;2022-07-24T07:54:34;11.70;;;11.10;;
434;SDS011;204;48.942;9.256;2022-07-24T07:57:00;11.20;;;10.60;;
434;SDS011;204;48.942;9.256;2022-07-24T07:59:26;10.97;;;10.37;;
434;SDS011;204;48.942;9.256;2022-07-24T08:01:51;10.37;;;9.90;;
434;SDS011;204;48.942;9.256;2022-07-24T08:04:17;10.57;;;10.00;;
434;SDS011;204;48.942;9.256;2022-07-24T08:06:43;10.83;;;10.23;;
434;SDS011;204;48.942;9.256;2022-07-24T08:09:09;10.90;;;10.30;;
434;SDS011;204;48.942;9.256;2022-07-24T08:11:34;11.63;;;11.03;;
434;SDS011;204;48.942;9.256;2022-07-24T08:14:00;10.30;;;9.80;;
434;SDS011;204;48.942;9.256;2022-07-24T08:16:25;10.10;;;9.60;;
434;SDS011;204;48.942;9.256;2022-07-24T08:18:51;11.07;;;10.47;;
434;SDS011;204;48.942;9.256;2022-07-24T08:21:17;9.30;;;8.80;;
434;SDS011;204;48.942;9.256;2022-07-24T08:23:43;9.33;;;8.83;;
434;SDS011;204;48.942;9.256;2022-07-24T08:26:10;10.57;;;9.63;;
434;SDS011;204;48.942;9.256;2022-07-24T08:28:36;9.30;;;8.80;;
434;SDS011;204;48.942;9.256;2022-07-24T08:31:02;9.80;;;9.30;;
434;SDS011;204;48.942;9.256;2022-07-24T08:33:28;10.53;;;9.97;;
434;SDS011;204;48.942;9.256;2022-07-24T08:35:53;9.80;;;9.30;;
434;SDS011;204;48.942;9.256;2022-07-24T08:38:19;10.10;;;9.60;;
434;SDS011;204;48.942;9.256;2022-07-24T08:40:45;9.60;;;9.10;;
434;SDS011;204;48.942;9.256;2022-07-24T08:43:10;10.60;;;10.00;;
434;SDS011;204;48.942;9.256;2022-07-24T08:45:39;10.40;;;9.90;;
434;SDS011;204;48.942;9.256;2022-07-24T08:48:07;11.60;;;10.40;;
434;SDS011;204;48.942;9.256;2022-07-24T08:50:35;9.47;;;8.97;;
434;SDS011;204;48.942;9.256;2022-07-24T08:53:04;9.90;;;9.40;;
434;SDS011;204;48.942;9.256;2022-07-24T08:55:30;10.03;;;9.53;;
434;SDS011;204;48.942;9.256;2022-07-24T08:57:57;10.13;;;9.63;;
434;SDS011;204;48.942;9.256;2022-07-24T09:00:24;9.43;;;8.93;;
434;SDS011;204;48.942;9.256;2022-07-24T09:02:53;9.13;;;8.63;;
434;SDS011;204;48.942;9.256;2022-07-24T09:05:19;9.47;;;8.97;;
434;SDS011;204;48.942;9.256;2022-07-24T09:07:45;9.13;;;8.63;;
434;SDS011;204;48.942;9.256;2022-07-24T09:10:12;9.73;;;9.23;;
434;SDS011;204;48.942;9.256;2022-07-24T09:12:40;8.70;;;8.20;;
434;SDS011;204;48.942;9.256;2022-07-24T09:15:15;9.30;;;8.80;;
434;SDS011;204;48.942;9.256;2022-07-24T09:17:49;9.77;;;9.27;;
434;SDS011;204;48.942;9.256;2022-07-24T09:20:17;9.80;;;9.30;;
434;SDS011;204;48.942;9.256;2022-07-24T09:22:43;9.50;;;9.00;;
434;SDS011;204;48.942;9.256;2022-07-24T09:25:19;8.50;;;8.00;;
434;SDS011;204;48.942;9.256;2022-07-24T09:27:53;9.77;;;9.27;;
434;SDS011;204;48.942;9.256;2022-07-24T09:35:22;9.60;;;9.10;;
434;SDS011;204;48.942;9.256;2022-07-24T09:37:54;12.43;;;9.23;;
434;SDS011;204;48.942;9.256;2022-07-24T09:40:20;8.53;;;8.07;;
434;SDS011;204;48.942;9.256;2022-07-24T09:42:46;8.50;;;8.00;;
434;SDS011;204;48.942;9.256;2022-07-24T09:45:12;11.00;;;9.63;;
434;SDS011;204;48.942;9.256;2022-07-24T09:47:38;10.00;;;9.50;;
434;SDS011;204;48.942;9.256;2022-07-24T09:50:11;10.57;;;9.40;;
434;SDS011;204;48.942;9.256;2022-07-24T09:52:38;9.70;;;9.17;;
434;SDS011;204;48.942;9.256;2022-07-24T09:55:18;8.70;;;8.20;;
434;SDS011;204;48.942;9.256;2022-07-24T09:57:48;8.90;;;8.40;;
434;SDS011;204;48.942;9.256;2022-07-24T10:00:14;8.77;;;8.27;;
434;SDS011;204;48.942;9.256;2022-07-24T10:02:41;9.07;;;8.57;;
434;SDS011;204;48.942;9.256;2022-07-24T10:05:09;8.47;;;8.00;;
434;SDS011;204;48.942;9.256;2022-07-24T10:07:36;8.73;;;8.23;;
434;SDS011;204;48.942;9.256;2022-07-24T10:10:03;7.80;;;7.40;;
434;SDS011;204;48.942;9.256;2022-07-24T10:12:30;8.20;;;7.80;;
434;SDS011;204;48.942;9.256;2022-07-24T10:14:57;8.50;;;8.00;;
434;SDS011;204;48.942;9.256;2022-07-24T10:20:40;9.13;;;8.63;;
434;SDS011;204;48.942;9.256;2022-07-24T10:23:07;8.07;;;7.67;;
434;SDS011;204;48.942;9.256;2022-07-24T10:25:38;8.00;;;7.60;;
434;SDS011;204;48.942;9.256;2022-07-24T10:28:41;9.00;;;8.50;;
434;SDS011;204;48.942;9.256;2022-07-24T10:31:07;7.10;;;6.70;;
434;SDS011;204;48.942;9.256;2022-07-24T10:33:38;6.87;;;6.47;;
434;SDS011;204;48.942;9.256;2022-07-24T10:36:16;7.10;;;6.70;;
434;SDS011;204;48.942;9.256;2022-07-24T10:39:34;7.10;;;6.70;;
434;SDS011;204;48.942;9.256;2022-07-24T10:41:38;7.30;;;6.90;;
434;SDS011;204;48.942;9.256;2022-07-24T10:49:48;6.93;;;6.53;;
434;SDS011;204;48.942;9.256;2022-07-24T10:52:25;7.13;;;6.73;;
434;SDS011;204;48.942;9.256;2022-07-24T11:02:56;7.70;;;7.30;;
434;SDS011;204;48.942;9.256;2022-07-24T11:05:24;8.77;;;7.87;;
434;SDS011;204;48.942;9.256;2022-07-24T11:10:49;8.20;;;7.80;;
434;SDS011;204;48.942;9.256;2022-07-24T11:14:02;8.13;;;7.73;;
434;SDS011;204;48.942;9.256;2022-07-24T11:29:22;7.00;;;6.60;;
434;SDS011;204;48.942;9.256;2022-07-24T11:34:22;8.33;;;7.90;;
434;SDS011;204;48.942;9.256;2022-07-24T11:36:49;8.17;;;7.77;;
434;SDS011;204;48.942;9.256;2022-07-24T11:39:17;8.17;;;7.77;;
434;SDS011;204;48.942;9.256;2022-07-24T11:44:14;8.47;;;8.00;;
434;SDS011;204;48.942;9.256;2022-07-24T11:46:46;8.57;;;8.07;;
434;SDS011;204;48.942;9.256;2022-07-24T11:49:11;9.07;;;8.57;;
434;SDS011;204;48.942;9.256;2022-07-24T11:51:44;8.73;;;8.23;;
434;SDS011;204;48.942;9.256;2022-07-24T11:54:11;7.10;;;6.70;;
434;SDS011;204;48.942;9.256;2022-07-24T11:56:39;8.10;;;7.70;;
434;SDS011;204;48.942;9.256;2022-07-24T11:59:05;8.03;;;7.63;;
434;SDS011;204;48.942;9.256;2022-07-24T12:01:31;7.80;;;7.40;;
434;SDS011;204;48.942;9.256;2022-07-24T12:03:57;7.80;;;7.40;;
434;SDS011;204;48.942;9.256;2022-07-24T12:06:24;7.80;;;7.40;;
434;SDS011;204;48.942;9.256;2022-07-24T12:08:51;8.90;;;8.17;;
434;SDS011;204;48.942;9.256;2022-07-24T12:11:22;8.20;;;7.80;;
434;SDS011;204;48.942;9.256;2022-07-24T12:13:49;7.27;;;6.87;;
434;SDS011;204;48.942;9.256;2022-07-24T12:16:23;8.70;;;8.20;;
434;SDS011;204;48.942;9.256;2022-07-24T12:18:50;8.17;;;6.83;;
434;SDS011;204;48.942;9.256;2022-07-24T12:21:16;8.07;;;7.70;;
434;SDS011;204;48.942;9.256;2022-07-24T12:23:44;7.20;;;6.80;;
434;SDS011;204;48.942;9.256;2022-07-24T12:26:11;7.50;;;7.10;;
434;SDS011;204;48.942;9.256;2022-07-24T12:28:37;7.93;;;7.53;;
434;SDS011;204;48.942;9.256;2022-07-24T12:31:06;8.20;;;7.80;;
434;SDS011;204;48.942;9.256;2022-07-24T12:33:35;7.60;;;7.20;;
434;SDS011;204;48.942;9.256;2022-07-24T12:38:40;7.50;;;7.10;;
434;SDS011;204;48.942;9.256;2022-07-24T12:43:46;8.00;;;7.60;;
434;SDS011;204;48.942;9.256;2022-07-24T12:46:20;7.60;;;7.20;;
434;SDS011;204;48.942;9.256;2022-07-24T12:51:22;7.50;;;7.10;;
434;SDS011;204;48.942;9.256;2022-07-24T12:53:51;7.73;;;7.33;;
434;SDS011;204;48.942;9.256;2022-07-24T12:56:18;11.07;;;7.80;;
434;SDS011;204;48.942;9.256;2022-07-24T12:58:54;7.17;;;6.77;;
434;SDS011;204;48.942;9.256;2022-07-24T13:01:27;7.80;;;7.40;;
434;SDS011;204;48.942;9.256;2022-07-24T13:04:08;8.23;;;7.80;;
434;SDS011;204;48.942;9.256;2022-07-24T13:06:40;7.07;;;6.67;;
434;SDS011;204;48.942;9.256;2022-07-24T13:09:08;8.13;;;7.20;;
434;SDS011;204;48.942;9.256;2022-07-24T13:11:35;7.60;;;7.20;;
434;SDS011;204;48.942;9.256;2022-07-24T13:14:02;8.07;;;7.67;;
434;SDS011;204;48.942;9.256;2022-07-24T13:16:31;7.80;;;7.40;;
434;SDS011;204;48.942;9.256;2022-07-24T13:19:00;7.93;;;7.53;;
434;SDS011;204;48.942;9.256;2022-07-24T13:21:26;7.63;;;7.23;;
434;SDS011;204;48.942;9.256;2022-07-24T13:23:53;7.60;;;7.20;;
434;SDS011;204;48.942;9.256;2022-07-24T13:26:19;11.47;;;10.87;;
434;SDS011;204;48.942;9.256;2022-07-24T13:28:45;8.07;;;7.67;;
434;SDS011;204;48.942;9.256;2022-07-24T13:31:11;7.63;;;7.23;;
434;SDS011;204;48.942;9.256;2022-07-24T13:33:37;8.03;;;7.63;;
434;SDS011;204;48.942;9.256;2022-07-24T13:36:03;9.03;;;8.53;;
434;SDS011;204;48.942;9.256;2022-07-24T13:38:30;7.90;;;7.50;;
434;SDS011;204;48.942;9.256;2022-07-24T13:40:55;8.67;;;8.17;;
434;SDS011;204;48.942;9.256;2022-07-24T13:43:21;8.30;;;7.90;;
434;SDS011;204;48.942;9.256;2022-07-24T13:45:47;8.03;;;7.63;;
434;SDS011;204;48.942;9.256;2022-07-24T13:48:13;7.90;;;7.50;;
434;SDS011;204;48.942;9.256;2022-07-24T13:50:38;8.20;;;7.80;;
434;SDS011;204;48.942;9.256;2022-07-24T13:53:04;8.60;;;8.10;;
434;SDS011;204;48.942;9.256;2022-07-24T13:55:30;9.07;;;8.57;;
434;SDS011;204;48.942;9.256;2022-07-24T13:57:57;7.60;;;7.20;;
434;SDS011;204;48.942;9.256;2022-07-24T14:00:23;11.47;;;10.87;;
434;SDS011;204;48.942;9.256;2022-07-24T14:02:49;10.10;;;9.60;;
434;SDS011;204;48.942;9.256;2022-07-24T14:05:19;7.70;;;7.30;;
434;SDS011;204;48.942;9.256;2022-07-24T14:07:49;8.60;;;8.10;;
434;SDS011;204;48.942;9.256;2022-07-24T14:10:14;8.03;;;7.63;;
434;SDS011;204;48.942;9.256;2022-07-24T14:12:40;7.83;;;7.43;;
434;SDS011;204;48.942;9.256;2022-07-24T14:15:06;8.00;;;7.60;;
434;SDS011;204;48.942;9.256;2022-07-24T14:17:33;7.90;;;7.50;;
434;SDS011;204;48.942;9.256;2022-07-24T14:20:00;7.60;;;7.20;;
434;SDS011;204;48.942;9.256;2022-07-24T14:22:26;8.70;;;8.20;;
434;SDS011;204;48.942;9.256;2022-07-24T14:24:51;8.70;;;8.20;;
434;SDS011;204;48.942;9.256;2022-07-24T14:27:17;9.53;;;8.53;;
434;SDS011;204;48.942;9.256;2022-07-24T14:29:43;7.40;;;7.00;;
434;SDS011;204;48.942;9.256;2022-07-24T14:32:08;7.90;;;7.50;;
434;SDS011;204;48.942;9.256;2022-07-24T14:34:34;8.10;;;7.70;;
434;SDS011;204;48.942;9.256;2022-07-24T14:37:00;7.70;;;7.30;;
434;SDS011;204;48.942;9.256;2022-07-24T14:39:25;9.17;;;8.67;;
434;SDS011;204;48.942;9.256;2022-07-24T14:41:53;8.83;;;8.33;;
434;SDS011;204;48.942;9.256;2022-07-24T14:44:19;9.13;;;8.63;;
434;SDS011;204;48.942;9.256;2022-07-24T14:46:44;8.30;;;7.90;;
434;SDS011;204;48.942;9.256;2022-07-24T14:49:10;7.47;;;7.07;;
434;SDS011;204;48.942;9.256;2022-07-24T14:51:36;8.20;;;7.80;;
434;SDS011;204;48.942;9.256;2022-07-24T14:54:02;9.33;;;8.83;;
434;SDS011;204;48.942;9.256;2022-07-24T14:56:28;8.63;;;8.13;;
434;SDS011;204;48.942;9.256;2022-07-24T14:58:53;7.90;;;7.50;;
434;SDS011;204;48.942;9.256;2022-07-24T15:01:19;8.47;;;8.00;;
434;SDS011;204;48.942;9.256;2022-07-24T15:03:45;8.03;;;7.63;;
434;SDS011;204;48.942;9.256;2022-07-24T15:06:10;8.20;;;7.80;;
434;SDS011;204;48.942;9.256;2022-07-24T15:08:36;7.60;;;7.20;;
434;SDS011;204;48.942;9.256;2022-07-24T15:11:02;7.50;;;7.10;;
434;SDS011;204;48.942;9.256;2022-07-24T15:13:27;7.80;;;7.40;;
434;SDS011;204;48.942;9.256;2022-07-24T15:15:53;7.50;;;7.10;;
434;SDS011;204;48.942;9.256;2022-07-24T15:18:20;8.00;;;7.60;;
434;SDS011;204;48.942;9.256;2022-07-24T15:20:46;7.83;;;7.43;;
434;SDS011;204;48.942;9.256;2022-07-24T15:23:12;7.90;;;7.50;;
434;SDS011;204;48.942;9.256;2022-07-24T15:25:37;8.00;;;7.60;;
434;SDS011;204;48.942;9.256;2022-07-24T15:28:03;9.07;;;8.57;;
434;SDS011;204;48.942;9.256;2022-07-24T15:30:30;8.60;;;8.10;;
434;SDS011;204;48.942;9.256;2022-07-24T15:32:56;9.63;;;9.13;;
434;SDS011;204;48.942;9.256;2022-07-24T15:35:21;7.63;;;7.23;;
434;SDS011;204;48.942;9.256;2022-07-24T15:37:47;8.27;;;7.87;;
434;SDS011;204;48.942;9.256;2022-07-24T15:40:13;8.53;;;8.03;;
434;SDS011;204;48.942;9.256;2022-07-24T15:42:39;7.57;;;7.17;;
434;SDS011;204;48.942;9.256;2022-07-24T15:45:05;8.07;;;7.67;;
434;SDS011;204;48.942;9.256;2022-07-24T15:47:31;8.87;;;8.37;;
434;SDS011;204;48.942;9.256;2022-07-24T15:49:56;8.73;;;8.23;;
434;SDS011;204;48.942;9.256;2022-07-24T15:52:22;8.53;;;8.03;;
434;SDS011;204;48.942;9.256;2022-07-24T15:54:47;7.80;;;7.40;;
434;SDS011;204;48.942;9.256;2022-07-24T15:57:13;8.40;;;6.67;;
434;SDS011;204;48.942;9.256;2022-07-24T15:59:38;7.67;;;7.27;;
434;SDS011;204;48.942;9.256;2022-07-24T16:02:04;7.80;;;7.40;;
434;SDS011;204;48.942;9.256;2022-07-24T16:04:30;7.87;;;7.47;;
434;SDS011;204;48.942;9.256;2022-07-24T16:06:55;7.37;;;6.97;;
434;SDS011;204;48.942;9.256;2022-07-24T16:09:21;7.73;;;7.33;;
434;SDS011;204;48.942;9.256;2022-07-24T16:11:47;7.60;;;7.20;;
434;SDS011;204;48.942;9.256;2022-07-24T16:14:12;8.93;;;8.43;;